Time;durP1;ratioP1;P1;durP2;ratioP2;P2;SDS_P1;SDS_P2;PMS_P1;PMS_P2;Temp;Humidity;BMP_temperature;BMP_pressure;BME280_temperature;BME280_humidity;BME280_pressure;Samples;Min_cycle;Max_cycle;Signal;HPM_P1;HPM_P2
2023/09/26 00:01:56;;;;;;;5.23;4.80;;;12.10;1.00;;;;;;4998363;28;20212;-71
2023/09/26 00:04:22;;;;;;;5.37;4.97;;;12.10;1.00;;;;;;4982925;28;20419;-68
2023/09/26 00:06:49;;;;;;;5.90;5.40;;;12.00;1.00;;;;;;4998516;28;20426;-68
2023/09/26 00:09:15;;;;;;;5.80;5.30;;;12.00;1.00;;;;;;4999425;28;20175;-68
2023/09/26 00:11:41;;;;;;;5.10;4.80;;;12.00;1.00;;;;;;5015642;28;20426;-69
2023/09/26 00:14:07;;;;;;;5.00;4.40;;;12.00;2.50;;;;;;4982995;28;20184;-69
2023/09/26 00:16:33;;;;;;;5.97;5.47;;;12.00;1.00;;;;;;4998929;28;20939;-69
2023/09/26 00:19:02;;;;;;;5.37;4.97;;;12.00;1.60;;;;;;4998979;28;20246;-69
2023/09/26 00:21:29;;;;;;;9.80;5.20;;;12.00;2.80;;;;;;4998200;28;20277;-68
2023/09/26 00:23:56;;;;;;;5.10;4.70;;;11.90;2.90;;;;;;5016408;28;20740;-71
2023/09/26 00:26:21;;;;;;;4.70;4.40;;;12.00;3.20;;;;;;4998106;28;20462;-69
2023/09/26 00:28:49;;;;;;;5.30;5.00;;;11.90;2.70;;;;;;4998677;28;20218;-68
2023/09/26 00:31:16;;;;;;;5.40;4.90;;;11.90;4.00;;;;;;4997840;28;20224;-70
2023/09/26 00:33:43;;;;;;;5.17;4.77;;;11.90;4.70;;;;;;5016139;28;20411;-69
2023/09/26 00:36:10;;;;;;;5.70;5.20;;;11.90;5.20;;;;;;4998696;28;20506;-69
2023/09/26 00:38:37;;;;;;;9.47;5.20;;;11.90;4.30;;;;;;4998552;28;20402;-69
2023/09/26 00:41:03;;;;;;;5.80;5.40;;;11.90;3.90;;;;;;5014939;28;20483;-69
2023/09/26 00:43:31;;;;;;;6.10;5.70;;;11.80;2.50;;;;;;4997884;28;20936;-68
2023/09/26 00:45:59;;;;;;;5.13;4.63;;;11.80;4.70;;;;;;4998417;28;20390;-68
2023/09/26 00:48:27;;;;;;;4.97;4.57;;;11.80;6.50;;;;;;4998461;28;20423;-69
2023/09/26 00:50:55;;;;;;;5.43;5.03;;;11.80;6.60;;;;;;4997614;28;20435;-69
2023/09/26 00:53:25;;;;;;;5.10;4.80;;;11.80;5.90;;;;;;4998346;28;20386;-69
2023/09/26 00:55:53;;;;;;;5.23;4.83;;;11.80;6.80;;;;;;4998243;28;20805;-68
2023/09/26 00:58:32;;;;;;;;;;;;;;;;;;;;;
2023/09/26 01:00:58;;;;;;;5.43;5.03;;;11.70;6.80;;;;;;4995419;28;20444;-68
2023/09/26 01:03:24;;;;;;;5.53;5.13;;;11.70;6.80;;;;;;4997962;28;20456;-68
2023/09/26 01:05:51;;;;;;;5.73;5.23;;;11.70;7.40;;;;;;4998242;28;20769;-68
2023/09/26 01:08:18;;;;;;;6.17;5.57;;;11.70;7.60;;;;;;4981627;28;20400;-70
2023/09/26 01:10:46;;;;;;;5.47;5.07;;;11.70;8.40;;;;;;5013970;28;20486;-68
2023/09/26 01:13:13;;;;;;;5.97;5.40;;;11.70;9.20;;;;;;4997550;28;20776;-68
2023/09/26 01:15:41;;;;;;;4.90;4.60;;;11.60;9.60;;;;;;4997889;28;20410;-68
2023/09/26 01:18:10;;;;;;;6.37;5.30;;;11.60;11.40;;;;;;5014638;28;20389;-68
2023/09/26 01:20:46;;;;;;;8.67;5.80;;;11.60;12.60;;;;;;4980347;28;20455;-68
2023/09/26 01:23:14;;;;;;;5.60;5.20;;;11.60;12.70;;;;;;4997754;28;20496;-68
2023/09/26 01:25:42;;;;;;;6.00;5.50;;;11.60;13.80;;;;;;4998091;28;20390;-68
2023/09/26 01:28:14;;;;;;;6.30;5.70;;;11.60;14.60;;;;;;4997988;28;20476;-68
2023/09/26 01:30:44;;;;;;;6.37;5.57;;;11.60;14.50;;;;;;5013383;28;20931;-69
2023/09/26 01:33:16;;;;;;;6.60;6.00;;;11.60;15.50;;;;;;4998055;28;20413;-68
2023/09/26 01:35:52;;;;;;;6.30;5.80;;;11.60;16.80;;;;;;4998194;28;20415;-68
2023/09/26 01:38:21;;;;;;;5.63;5.13;;;11.60;19.00;;;;;;5011685;28;20485;-69
2023/09/26 01:40:47;;;;;;;5.83;5.43;;;11.60;19.50;;;;;;4996724;28;20413;-70
2023/09/26 01:43:13;;;;;;;6.60;6.00;;;11.60;20.90;;;;;;4997220;28;20486;-68
2023/09/26 01:45:39;;;;;;;6.07;5.57;;;11.50;20.10;;;;;;4997427;28;20172;-68
2023/09/26 01:48:09;;;;;;;6.83;5.63;;;11.50;22.00;;;;;;5014845;28;20404;-68
2023/09/26 01:50:37;;;;;;;6.90;6.20;;;11.50;24.20;;;;;;5013774;28;20180;-69
2023/09/26 01:53:14;;;;;;;6.33;5.83;;;11.50;26.00;;;;;;4998664;28;20409;-68
2023/09/26 01:55:42;;;;;;;6.50;5.90;;;11.50;26.50;;;;;;4995899;28;20421;-68
2023/09/26 01:58:08;;;;;;;6.00;5.60;;;11.50;27.10;;;;;;5014505;28;20385;-68
2023/09/26 02:00:42;;;;;;;6.53;6.03;;;11.50;28.20;;;;;;4996175;28;20443;-68
2023/09/26 02:03:08;;;;;;;7.33;6.73;;;11.50;29.40;;;;;;4997119;28;20194;-68
2023/09/26 02:05:38;;;;;;;6.97;6.27;;;11.50;30.80;;;;;;4997003;28;20386;-68
2023/09/26 02:08:05;;;;;;;6.13;5.67;;;11.50;32.70;;;;;;5014101;28;20192;-68
2023/09/26 02:10:31;;;;;;;7.00;6.50;;;11.50;34.50;;;;;;4993623;28;20383;-69
2023/09/26 02:12:58;;;;;;;6.00;5.50;;;11.50;37.60;;;;;;4996770;28;20378;-69
2023/09/26 02:15:25;;;;;;;7.90;7.10;;;11.50;39.40;;;;;;4996480;28;20934;-69
2023/09/26 02:17:51;;;;;;;6.67;6.07;;;11.50;40.50;;;;;;4997146;28;20653;-68
2023/09/26 02:20:19;;;;;;;6.67;6.17;;;11.50;46.40;;;;;;4979538;28;20449;-68
2023/09/26 02:22:54;;;;;;;6.10;5.70;;;11.60;60.50;;;;;;4996758;28;20216;-69
2023/09/26 02:25:23;;;;;;;6.87;6.40;;;11.60;67.50;;;;;;4996606;28;20422;-68
2023/09/26 02:27:50;;;;;;;7.33;6.73;;;11.60;71.20;;;;;;5013683;28;20401;-69
2023/09/26 02:30:19;;;;;;;9.40;7.20;;;11.60;72.20;;;;;;4995839;28;20378;-69
2023/09/26 02:32:45;;;;;;;7.70;7.07;;;11.60;72.90;;;;;;5013300;28;20444;-68
2023/09/26 02:35:13;;;;;;;7.70;7.10;;;11.60;73.70;;;;;;4996505;28;20747;-69
2023/09/26 02:37:40;;;;;;;9.90;6.23;;;11.60;75.20;;;;;;4996482;28;20184;-69
2023/09/26 02:40:07;;;;;;;6.87;6.20;;;11.60;76.80;;;;;;4995554;28;20394;-68
2023/09/26 02:42:33;;;;;;;7.27;6.40;;;11.60;77.20;;;;;;4996101;28;20543;-69
2023/09/26 02:45:03;;;;;;;6.93;6.00;;;11.60;77.90;;;;;;4996580;28;20785;-68
2023/09/26 02:47:31;;;;;;;7.00;6.40;;;11.60;77.60;;;;;;4996720;28;20746;-69
2023/09/26 02:49:57;;;;;;;6.40;5.90;;;11.50;77.10;;;;;;4995504;28;20398;-72
2023/09/26 02:52:26;;;;;;;6.30;5.70;;;11.50;78.50;;;;;;5013122;28;20957;-68
2023/09/26 02:54:56;;;;;;;6.20;5.60;;;11.50;78.50;;;;;;4979836;28;20646;-67
2023/09/26 02:57:24;;;;;;;6.30;5.80;;;11.50;78.70;;;;;;5013554;28;20396;-68
2023/09/26 02:59:52;;;;;;;7.23;6.73;;;11.50;79.00;;;;;;4995734;28;20487;-68
2023/09/26 03:03:04;;;;;;;9.10;6.70;;;11.50;78.60;;;;;;4995914;28;20953;-68
2023/09/26 03:05:53;;;;;;;6.53;5.93;;;11.50;77.40;;;;;;4991828;28;20401;-69
2023/09/26 03:08:20;;;;;;;7.43;5.90;;;11.40;77.00;;;;;;4995637;28;20498;-72
2023/09/26 03:11:14;;;;;;;6.93;6.30;;;11.40;75.60;;;;;;4995201;28;20401;-67
2023/09/26 03:13:41;;;;;;;6.57;5.97;;;11.30;72.10;;;;;;4993145;28;20390;-68
2023/09/26 03:16:57;;;;;;;6.60;6.10;;;11.30;69.40;;;;;;5013506;28;20889;-67
2023/09/26 03:19:25;;;;;;;7.13;6.23;;;11.20;66.60;;;;;;4993394;28;20403;-68
2023/09/26 03:22:09;;;;;;;7.83;7.33;;;11.20;63.30;;;;;;4975911;28;20506;-68
2023/09/26 03:28:04;;;;;;;6.77;6.17;;;11.20;62.90;;;;;;4948000;28;20394;-69
2023/09/26 03:30:30;;;;;;;7.60;6.70;;;11.20;64.10;;;;;;4959118;28;20760;-70
2023/09/26 03:32:56;;;;;;;7.43;6.60;;;11.20;65.40;;;;;;4976245;28;20774;-68
2023/09/26 03:35:30;;;;;;;7.43;6.60;;;11.20;68.80;;;;;;4964210;28;20443;-69
2023/09/26 03:37:56;;;;;;;7.60;6.90;;;11.20;71.80;;;;;;4980108;28;20785;-67
2023/09/26 03:40:24;;;;;;;7.93;7.13;;;11.20;75.10;;;;;;4978353;28;20416;-68
2023/09/26 03:42:59;;;;;;;7.43;6.83;;;11.20;78.90;;;;;;4997347;28;20534;-68
2023/09/26 03:45:26;;;;;;;7.47;6.87;;;11.20;84.40;;;;;;4996790;28;20396;-68
2023/09/26 03:47:53;;;;;;;6.70;6.10;;;11.20;89.60;;;;;;4963960;28;20408;-68
2023/09/26 03:50:23;;;;;;;8.20;7.40;;;11.20;91.20;;;;;;4995884;28;20615;-68
2023/09/26 03:52:53;;;;;;;6.97;6.37;;;11.20;92.40;;;;;;4997231;28;20387;-69
2023/09/26 03:55:20;;;;;;;7.83;7.23;;;11.20;92.40;;;;;;4997302;28;20406;-68
2023/09/26 03:57:47;;;;;;;7.83;7.13;;;11.20;92.40;;;;;;4956205;28;20504;-69
2023/09/26 04:00:16;;;;;;;7.30;6.70;;;11.20;92.40;;;;;;4996331;28;20412;-68
2023/09/26 04:02:44;;;;;;;7.73;7.03;;;11.20;92.40;;;;;;4979020;28;20483;-70
2023/09/26 04:05:11;;;;;;;7.70;6.90;;;11.20;92.50;;;;;;4996588;28;20478;-68
2023/09/26 04:07:37;;;;;;;8.10;7.40;;;11.20;92.40;;;;;;4979688;28;20395;-69
2023/09/26 04:10:05;;;;;;;7.80;7.10;;;11.20;92.50;;;;;;4978825;28;20418;-68
2023/09/26 04:12:31;;;;;;;8.20;7.47;;;11.20;92.50;;;;;;4996760;28;20407;-68
2023/09/26 04:14:58;;;;;;;9.17;8.27;;;11.30;99.80;;;;;;4979454;28;20429;-67
2023/09/26 04:17:23;;;;;;;11.77;7.70;;;11.40;99.90;;;;;;4996826;28;20181;-68
2023/09/26 04:19:49;;;;;;;9.50;7.37;;;11.50;99.90;;;;;;4962407;28;20419;-68
2023/09/26 04:22:16;;;;;;;12.60;8.60;;;11.50;99.90;;;;;;4978019;28;20231;-69
2023/09/26 04:24:42;;;;;;;8.43;7.70;;;11.50;99.90;;;;;;4996206;28;20216;-69
2023/09/26 04:27:09;;;;;;;8.20;7.50;;;11.50;99.90;;;;;;4979338;28;20883;-69
2023/09/26 04:29:35;;;;;;;10.13;8.90;;;11.50;99.90;;;;;;4962433;28;20503;-70
2023/09/26 04:32:03;;;;;;;8.70;8.00;;;11.40;99.90;;;;;;4979321;28;20407;-73
2023/09/26 04:34:31;;;;;;;11.90;9.10;;;11.40;99.90;;;;;;4978782;28;20462;-69
2023/09/26 04:37:01;;;;;;;9.40;8.37;;;11.30;99.90;;;;;;4964213;28;20773;-67
2023/09/26 04:39:28;;;;;;;8.10;7.27;;;11.30;99.90;;;;;;4978340;28;20424;-68
2023/09/26 04:41:54;;;;;;;8.20;7.40;;;11.30;99.90;;;;;;4961293;28;20446;-69
2023/09/26 04:44:20;;;;;;;8.10;7.40;;;11.20;99.90;;;;;;4978793;28;20416;-67
2023/09/26 04:47:07;;;;;;;8.40;7.03;;;11.20;99.90;;;;;;4979105;28;20387;-69
2023/09/26 04:49:39;;;;;;;8.83;7.93;;;11.20;99.90;;;;;;4978131;28;20395;-83
2023/09/26 04:52:05;;;;;;;10.73;8.20;;;11.20;99.90;;;;;;4996259;28;20399;-68
2023/09/26 04:54:30;;;;;;;8.90;8.00;;;11.20;99.90;;;;;;4978482;28;20426;-68
2023/09/26 04:56:56;;;;;;;14.03;8.47;;;11.20;99.90;;;;;;4978806;28;20204;-70
2023/09/26 04:59:27;;;;;;;8.70;7.70;;;11.20;99.90;;;;;;4977151;28;20245;-69
2023/09/26 05:01:55;;;;;;;10.13;8.87;;;11.10;99.90;;;;;;4961761;28;20787;-67
2023/09/26 05:04:22;;;;;;;9.13;8.33;;;11.20;99.90;;;;;;4995860;28;20904;-67
2023/09/26 05:06:48;;;;;;;8.53;7.73;;;11.20;99.90;;;;;;4978599;28;20394;-68
2023/09/26 05:09:14;;;;;;;9.47;8.57;;;11.20;99.90;;;;;;4977933;28;20876;-68
2023/09/26 05:11:40;;;;;;;8.20;7.50;;;11.30;99.90;;;;;;4977706;28;20201;-69
2023/09/26 05:14:07;;;;;;;10.10;9.20;;;11.30;99.90;;;;;;4962145;28;20894;-68
2023/09/26 05:16:34;;;;;;;9.43;8.40;;;11.30;99.90;;;;;;4961539;28;20557;-69
2023/09/26 05:19:03;;;;;;;9.20;8.30;;;11.30;99.90;;;;;;4995344;28;20420;-67
2023/09/26 05:21:30;;;;;;;9.10;8.40;;;11.30;99.90;;;;;;4977045;28;20951;-67
2023/09/26 05:23:57;;;;;;;9.03;8.23;;;11.40;99.90;;;;;;4978497;28;20474;-67
2023/09/26 05:26:23;;;;;;;9.70;8.80;;;11.40;99.90;;;;;;4962031;28;20396;-68
2023/09/26 05:28:51;;;;;;;9.50;8.60;;;11.50;99.90;;;;;;4978289;28;20398;-69
2023/09/26 05:31:18;;;;;;;13.73;8.67;;;11.60;99.90;;;;;;4977395;28;20594;-68
2023/09/26 05:33:44;;;;;;;9.37;8.47;;;11.60;99.90;;;;;;4978413;28;20395;-69
2023/09/26 05:36:09;;;;;;;11.90;9.27;;;11.60;99.90;;;;;;4977447;28;20449;-70
2023/09/26 05:38:35;;;;;;;10.90;8.80;;;11.70;99.90;;;;;;4978074;28;20467;-68
2023/09/26 05:41:01;;;;;;;9.30;8.50;;;11.70;99.90;;;;;;4994248;28;20188;-68
2023/09/26 05:43:28;;;;;;;9.63;8.63;;;11.70;99.90;;;;;;4978290;28;20229;-69
2023/09/26 05:45:54;;;;;;;9.40;8.60;;;11.70;99.90;;;;;;4977504;28;20205;-68
2023/09/26 05:48:20;;;;;;;11.80;10.60;;;11.70;99.90;;;;;;4995292;28;20440;-69
2023/09/26 05:50:45;;;;;;;10.33;9.07;;;11.70;99.90;;;;;;4994390;28;20204;-65
2023/09/26 05:53:12;;;;;;;10.03;9.13;;;11.70;99.90;;;;;;4977765;28;20383;-66
2023/09/26 05:55:38;;;;;;;8.27;7.60;;;11.70;99.90;;;;;;4994461;28;20195;-65
2023/09/26 05:58:04;;;;;;;9.90;8.50;;;11.70;99.90;;;;;;4995055;28;20895;-68
2023/09/26 06:00:31;;;;;;;11.93;10.27;;;11.80;99.90;;;;;;4993926;28;20383;-68
2023/09/26 06:02:57;;;;;;;9.40;8.60;;;11.80;99.90;;;;;;4994815;28;20531;-69
2023/09/26 06:05:22;;;;;;;11.07;9.17;;;11.80;99.90;;;;;;4977698;28;20827;-68
2023/09/26 06:07:51;;;;;;;9.83;8.93;;;11.80;99.90;;;;;;4977494;28;20511;-68
2023/09/26 06:10:17;;;;;;;9.03;7.80;;;11.80;99.90;;;;;;4976984;28;20185;-68
2023/09/26 06:12:42;;;;;;;9.30;7.80;;;11.90;99.90;;;;;;4976725;28;20410;-64
2023/09/26 06:15:09;;;;;;;8.50;7.50;;;11.90;99.90;;;;;;4994676;28;20176;-68
2023/09/26 06:17:35;;;;;;;10.60;8.03;;;12.00;99.90;;;;;;4994840;28;20165;-65
2023/09/26 06:20:01;;;;;;;9.33;8.33;;;12.00;99.90;;;;;;4976424;28;20789;-68
2023/09/26 06:22:27;;;;;;;11.17;10.00;;;12.10;99.90;;;;;;4994651;28;20208;-68
2023/09/26 06:24:52;;;;;;;9.67;8.87;;;12.20;99.90;;;;;;4994584;28;20391;-66
2023/09/26 06:27:18;;;;;;;8.67;7.80;;;12.30;99.90;;;;;;4994482;28;20574;-68
2023/09/26 06:29:44;;;;;;;8.53;7.70;;;12.40;99.90;;;;;;4993656;28;20176;-65
2023/09/26 06:32:10;;;;;;;10.23;9.30;;;12.40;99.90;;;;;;4994049;28;20196;-68
2023/09/26 06:34:39;;;;;;;8.90;8.20;;;12.50;99.90;;;;;;4994718;28;20173;-65
2023/09/26 06:37:05;;;;;;;9.30;8.33;;;12.60;99.90;;;;;;4994588;28;20374;-65
2023/09/26 06:39:30;;;;;;;14.63;8.67;;;12.70;99.90;;;;;;4976681;28;20419;-65
2023/09/26 06:41:56;;;;;;;9.90;9.00;;;12.80;99.90;;;;;;4993714;28;20208;-65
2023/09/26 06:44:22;;;;;;;10.70;8.90;;;12.80;99.90;;;;;;4977166;28;20176;-65
2023/09/26 06:46:48;;;;;;;8.73;7.93;;;12.90;99.90;;;;;;4977161;28;20603;-65
2023/09/26 06:49:13;;;;;;;10.80;9.80;;;13.00;99.90;;;;;;4993475;28;20261;-68
2023/09/26 06:51:39;;;;;;;10.40;8.40;;;13.00;99.90;;;;;;4976128;28;20196;-68
2023/09/26 06:54:05;;;;;;;9.40;8.47;;;13.10;99.90;;;;;;4994327;28;20176;-65
2023/09/26 06:56:32;;;;;;;12.60;8.20;;;13.20;99.90;;;;;;4994126;28;20538;-68
2023/09/26 06:58:59;;;;;;;10.03;9.20;;;13.20;99.90;;;;;;4976978;28;20193;-69
2023/09/26 07:01:25;;;;;;;15.00;10.50;;;13.20;99.90;;;;;;4993106;28;20974;-68
2023/09/26 07:03:52;;;;;;;9.27;8.33;;;13.20;99.90;;;;;;4976852;28;20412;-69
2023/09/26 07:06:18;;;;;;;9.20;8.37;;;13.30;99.90;;;;;;4993813;28;20897;-71
2023/09/26 07:08:44;;;;;;;9.60;7.80;;;13.30;99.90;;;;;;4976579;28;20427;-68
2023/09/26 07:11:11;;;;;;;8.60;7.63;;;13.30;99.90;;;;;;4975675;28;20287;-69
2023/09/26 07:13:37;;;;;;;8.80;8.03;;;13.40;99.90;;;;;;4976739;28;20911;-67
2023/09/26 07:16:06;;;;;;;9.37;8.50;;;13.40;99.90;;;;;;4976798;28;20424;-68
2023/09/26 07:18:34;;;;;;;9.00;8.20;;;13.50;99.90;;;;;;4976700;28;20431;-67
2023/09/26 07:21:04;;;;;;;8.00;7.30;;;13.60;99.90;;;;;;4976042;28;20445;-68
2023/09/26 07:23:36;;;;;;;8.70;7.90;;;13.70;99.90;;;;;;4994049;28;20405;-69
2023/09/26 07:26:20;;;;;;;8.60;7.10;;;13.80;99.90;;;;;;4975658;28;20456;-69
2023/09/26 07:28:48;;;;;;;8.87;7.97;;;13.90;99.90;;;;;;4993729;28;20411;-67
2023/09/26 07:31:18;;;;;;;8.97;7.70;;;14.00;99.90;;;;;;4993051;28;20527;-68
2023/09/26 07:33:45;;;;;;;9.87;7.43;;;14.00;94.70;;;;;;4976446;28;20432;-68
2023/09/26 07:36:13;;;;;;;8.90;8.10;;;14.10;93.60;;;;;;4959841;28;20503;-69
2023/09/26 07:38:40;;;;;;;7.53;6.90;;;14.10;93.50;;;;;;4994016;28;20418;-67
2023/09/26 07:41:06;;;;;;;7.50;6.80;;;14.20;93.50;;;;;;4991038;28;20482;-69
2023/09/26 07:43:34;;;;;;;8.13;7.33;;;14.30;77.20;;;;;;4960607;28;20387;-71
2023/09/26 07:46:10;;;;;;;10.03;7.03;;;14.30;66.70;;;;;;4975612;28;20420;-69
2023/09/26 07:48:38;;;;;;;13.63;6.70;;;14.40;60.20;;;;;;4976713;28;20390;-68
2023/09/26 07:51:07;;;;;;;6.73;6.23;;;14.50;52.30;;;;;;4975769;28;20957;-69
2023/09/26 07:53:34;;;;;;;6.63;6.03;;;14.50;36.00;;;;;;4993708;28;20447;-68
2023/09/26 07:56:00;;;;;;;6.87;6.27;;;14.60;32.70;;;;;;4993396;28;20467;-69
2023/09/26 07:58:26;;;;;;;7.03;6.43;;;14.70;29.90;;;;;;4976478;28;20440;-68
2023/09/26 08:01:06;;;;;;;7.07;6.40;;;14.80;23.30;;;;;;4959267;28;21008;-67
2023/09/26 08:03:35;;;;;;;7.57;6.80;;;14.90;12.50;;;;;;4963847;28;20416;-68
2023/09/26 08:06:04;;;;;;;8.93;6.87;;;15.00;1.80;;;;;;4959518;28;20515;-69
2023/09/26 08:08:31;;;;;;;6.83;6.10;;;15.20;1.00;;;;;;4976535;28;20419;-68
2023/09/26 08:11:10;;;;;;;8.10;5.90;;;15.30;1.00;;;;;;4996190;28;20428;-68
2023/09/26 08:13:39;;;;;;;7.07;5.87;;;15.40;1.00;;;;;;4996896;28;20462;-70
2023/09/26 08:16:07;;;;;;;9.00;7.43;;;15.60;1.00;;;;;;4979790;28;20423;-68
2023/09/26 08:18:33;;;;;;;9.00;6.27;;;15.70;1.00;;;;;;4979703;28;20412;-68
2023/09/26 08:21:00;;;;;;;8.63;5.73;;;15.80;1.00;;;;;;4963002;28;20432;-69
2023/09/26 08:23:28;;;;;;;6.03;5.40;;;15.80;1.00;;;;;;4996270;28;20435;-69
2023/09/26 08:25:57;;;;;;;7.23;6.50;;;15.80;1.00;;;;;;4978996;28;20423;-69
2023/09/26 08:28:25;;;;;;;6.70;6.00;;;15.80;1.00;;;;;;4996911;28;20404;-67
2023/09/26 08:30:56;;;;;;;6.60;6.00;;;15.90;1.00;;;;;;4978603;28;20428;-69
2023/09/26 08:33:24;;;;;;;7.40;6.70;;;15.90;1.00;;;;;;4996769;28;20905;-68
2023/09/26 08:35:52;;;;;;;7.37;5.70;;;16.00;1.00;;;;;;4979528;28;20908;-68
2023/09/26 08:38:19;;;;;;;6.27;5.77;;;16.00;1.00;;;;;;4979049;28;21004;-68
2023/09/26 08:40:50;;;;;;;6.50;5.90;;;16.00;1.00;;;;;;4978096;28;20836;-69
2023/09/26 08:43:27;;;;;;;7.87;6.57;;;16.10;1.00;;;;;;4994735;28;20968;-68
2023/09/26 08:45:53;;;;;;;9.80;6.30;;;16.10;1.00;;;;;;4979987;28;20411;-70
2023/09/26 08:48:20;;;;;;;6.40;5.90;;;16.20;1.00;;;;;;4979408;28;20416;-69
2023/09/26 08:50:46;;;;;;;6.97;5.37;;;16.30;1.00;;;;;;4962443;28;20436;-68
2023/09/26 08:53:15;;;;;;;7.40;6.40;;;16.50;1.00;;;;;;4996461;28;20416;-69
2023/09/26 08:55:43;;;;;;;6.47;5.90;;;16.80;1.00;;;;;;4996480;28;20864;-69
2023/09/26 08:58:10;;;;;;;5.37;4.97;;;17.10;1.00;;;;;;4979237;28;20488;-69
2023/09/26 09:00:38;;;;;;;6.93;5.20;;;17.50;1.00;;;;;;4961860;28;20411;-73
2023/09/26 09:03:04;;;;;;;5.90;5.40;;;17.70;1.00;;;;;;4978772;28;20455;-69
2023/09/26 09:05:30;;;;;;;6.27;5.67;;;18.00;1.00;;;;;;4962878;28;20416;-68
2023/09/26 09:07:56;;;;;;;6.10;4.33;;;18.40;1.00;;;;;;4978876;28;20424;-68
2023/09/26 09:10:24;;;;;;;7.57;5.87;;;18.60;1.00;;;;;;4978096;28;20431;-69
2023/09/26 09:13:05;;;;;;;4.47;4.10;;;18.80;1.00;;;;;;4978765;28;20416;-69
2023/09/26 09:15:32;;;;;;;4.83;4.40;;;19.00;1.00;;;;;;4963692;28;20901;-69
2023/09/26 09:17:59;;;;;;;6.80;4.97;;;19.10;1.00;;;;;;4962704;28;20427;-68
2023/09/26 09:20:32;;;;;;;4.37;3.90;;;19.30;1.00;;;;;;4960304;28;20417;-69
2023/09/26 09:23:06;;;;;;;4.33;4.03;;;19.50;1.00;;;;;;4978612;28;20462;-68
2023/09/26 09:25:40;;;;;;;4.67;4.20;;;19.90;1.00;;;;;;4978604;28;20427;-68
2023/09/26 09:28:09;;;;;;;4.63;4.23;;;20.10;1.00;;;;;;4995754;28;20428;-70
2023/09/26 09:30:43;;;;;;;6.20;3.47;;;20.30;1.00;;;;;;4994882;28;20854;-67
2023/09/26 09:33:12;;;;;;;4.33;3.93;;;20.50;1.00;;;;;;4962830;28;20416;-67
2023/09/26 09:35:39;;;;;;;3.83;3.43;;;20.80;1.00;;;;;;4978701;28;20516;-68
2023/09/26 09:38:12;;;;;;;3.60;3.33;;;21.10;1.00;;;;;;4995294;28;20416;-68
2023/09/26 09:40:39;;;;;;;3.17;2.97;;;21.50;1.00;;;;;;4977547;28;20487;-68
2023/09/26 09:43:07;;;;;;;5.23;2.87;;;21.80;1.00;;;;;;4962254;28;20472;-68
2023/09/26 09:45:34;;;;;;;3.13;2.83;;;22.20;1.00;;;;;;4962126;28;20419;-67
2023/09/26 09:48:03;;;;;;;4.03;3.30;;;22.30;1.00;;;;;;4978259;28;20920;-68
2023/09/26 09:50:32;;;;;;;3.97;2.77;;;22.40;1.00;;;;;;4994412;28;20897;-68
2023/09/26 09:53:02;;;;;;;4.50;2.73;;;22.40;1.00;;;;;;4977913;28;20455;-67
2023/09/26 09:55:37;;;;;;;5.00;3.23;;;22.40;1.00;;;;;;4962160;28;20448;-67
2023/09/26 09:58:08;;;;;;;3.23;2.50;;;22.50;1.00;;;;;;4977575;28;20423;-68
2023/09/26 10:00:36;;;;;;;3.20;2.90;;;22.60;99.90;;;;;;4994121;28;20419;-68
2023/09/26 10:03:05;;;;;;;3.10;2.50;;;22.50;99.90;;;;;;4961940;28;20464;-68
2023/09/26 10:05:34;;;;;;;2.93;2.70;;;22.50;99.90;;;;;;4977772;28;20430;-68
2023/09/26 10:08:01;;;;;;;3.67;3.27;;;22.40;99.90;;;;;;4995001;28;20420;-68
2023/09/26 10:10:28;;;;;;;3.13;2.93;;;22.30;99.90;;;;;;4994060;28;20877;-68
2023/09/26 10:12:54;;;;;;;7.37;2.87;;;22.10;99.90;;;;;;4977724;28;20423;-68
2023/09/26 10:15:20;;;;;;;3.00;2.67;;;22.00;99.90;;;;;;4960824;28;20459;-68
2023/09/26 10:17:48;;;;;;;3.73;3.00;;;22.10;99.90;;;;;;4986816;28;20832;-68
2023/09/26 10:20:15;;;;;;;3.23;2.90;;;22.40;99.90;;;;;;4976703;28;20455;-68
2023/09/26 10:22:43;;;;;;;2.63;2.43;;;22.60;99.90;;;;;;4994556;28;21078;-68
2023/09/26 10:25:18;;;;;;;2.80;2.60;;;22.60;99.90;;;;;;4994647;28;20408;-68
2023/09/26 10:27:46;;;;;;;2.97;2.77;;;22.70;99.90;;;;;;4977271;28;20423;-68
2023/09/26 10:30:15;;;;;;;2.93;2.63;;;22.80;99.90;;;;;;4960463;28;20422;-68
2023/09/26 10:32:42;;;;;;;3.93;2.33;;;22.80;99.90;;;;;;4976765;28;20448;-68
2023/09/26 10:35:31;;;;;;;3.10;2.90;;;22.70;99.90;;;;;;4993896;28;20412;-69
2023/09/26 10:38:15;;;;;;;3.93;2.90;;;22.70;99.90;;;;;;4961168;28;20503;-67
2023/09/26 10:40:41;;;;;;;3.20;2.37;;;22.80;99.90;;;;;;4993485;28;20427;-67
2023/09/26 10:43:07;;;;;;;4.80;2.73;;;22.90;99.90;;;;;;4994214;28;20817;-69
2023/09/26 10:45:33;;;;;;;2.80;2.60;;;22.90;99.90;;;;;;4977070;28;20180;-68
2023/09/26 10:48:04;;;;;;;2.23;2.03;;;22.90;99.90;;;;;;4977094;28;20412;-68
2023/09/26 10:50:30;;;;;;;2.53;2.33;;;22.90;99.90;;;;;;4993415;28;20248;-68
2023/09/26 10:52:56;;;;;;;2.80;2.60;;;23.00;99.90;;;;;;4993960;28;21003;-69
2023/09/26 10:55:22;;;;;;;4.10;2.30;;;23.30;99.90;;;;;;4976477;28;20673;-68
2023/09/26 10:57:50;;;;;;;2.50;2.27;;;23.60;99.90;;;;;;4960495;28;20183;-68
2023/09/26 11:00:17;;;;;;;8.07;3.27;;;23.80;99.90;;;;;;4976042;28;20420;-68
2023/09/26 11:02:45;;;;;;;3.20;2.60;;;23.60;99.90;;;;;;4976716;28;20657;-68
2023/09/26 11:05:12;;;;;;;3.70;3.03;;;23.20;99.90;;;;;;4993978;28;20412;-68
2023/09/26 11:07:40;;;;;;;4.80;2.63;;;23.00;99.90;;;;;;4994155;28;20400;-68
2023/09/26 11:10:12;;;;;;;3.90;2.90;;;22.80;99.90;;;;;;4993141;28;20412;-69
2023/09/26 11:12:38;;;;;;;5.13;3.00;;;22.60;99.90;;;;;;4993406;28;20455;-67
2023/09/26 11:15:05;;;;;;;2.90;2.70;;;22.50;99.90;;;;;;4976576;28;20404;-70
2023/09/26 11:17:32;;;;;;;3.57;3.27;;;22.30;99.90;;;;;;4993987;28;21008;-67
2023/09/26 11:19:59;;;;;;;3.57;2.50;;;22.20;99.90;;;;;;4975781;28;20814;-68
2023/09/26 11:22:27;;;;;;;4.37;3.57;;;22.30;99.90;;;;;;4976434;28;20463;-68
2023/09/26 11:25:07;;;;;;;8.90;3.40;;;22.50;99.90;;;;;;4976444;28;20769;-67
2023/09/26 11:27:44;;;;;;;3.70;3.40;;;22.70;99.90;;;;;;4993754;28;20415;-68
2023/09/26 11:30:20;;;;;;;3.27;2.97;;;22.70;99.90;;;;;;4992367;28;20408;-69
2023/09/26 11:32:49;;;;;;;3.13;2.83;;;22.70;99.90;;;;;;4993643;28;20499;-68
2023/09/26 11:35:19;;;;;;;7.33;3.40;;;22.70;99.90;;;;;;4993691;28;20459;-68
2023/09/26 11:37:52;;;;;;;3.20;2.90;;;22.70;99.90;;;;;;4976336;28;21092;-69
2023/09/26 11:40:28;;;;;;;3.50;3.20;;;22.60;99.90;;;;;;4993068;28;20412;-68
2023/09/26 11:42:55;;;;;;;2.90;2.70;;;22.60;99.90;;;;;;4993570;28;20465;-67
2023/09/26 11:45:26;;;;;;;3.50;2.83;;;22.60;99.90;;;;;;4996810;28;20833;-69
2023/09/26 11:47:59;;;;;;;3.00;2.77;;;22.70;99.90;;;;;;4980127;28;20475;-68
2023/09/26 11:50:28;;;;;;;2.50;2.30;;;22.80;99.90;;;;;;4996086;28;20471;-68
2023/09/26 11:53:01;;;;;;;4.60;2.80;;;22.80;99.90;;;;;;4997744;28;20749;-67
2023/09/26 11:55:27;;;;;;;2.97;2.77;;;22.80;99.90;;;;;;4997346;28;20427;-68
2023/09/26 11:57:54;;;;;;;3.03;2.73;;;22.80;99.90;;;;;;4997530;28;20408;-68
2023/09/26 12:00:21;;;;;;;3.50;3.07;;;22.80;99.90;;;;;;4979135;28;20416;-68
2023/09/26 12:02:50;;;;;;;3.03;2.70;;;22.80;99.90;;;;;;4997381;28;20460;-68
2023/09/26 12:05:20;;;;;;;3.53;3.23;;;22.80;99.90;;;;;;4980040;28;20750;-68
2023/09/26 12:07:47;;;;;;;3.30;3.00;;;23.00;99.90;;;;;;4996614;28;20458;-68
2023/09/26 12:10:13;;;;;;;4.30;3.10;;;23.00;99.90;;;;;;4996320;28;20407;-68
2023/09/26 12:12:39;;;;;;;2.87;2.67;;;23.40;99.90;;;;;;4997088;28;20424;-68
2023/09/26 12:15:35;;;;;;;3.67;2.50;;;23.70;99.90;;;;;;4979997;28;20923;-68
2023/09/26 12:18:00;;;;;;;3.10;2.67;;;24.00;99.90;;;;;;4984248;28;20454;-68
2023/09/26 12:20:26;;;;;;;3.23;2.93;;;24.20;99.90;;;;;;4996003;28;20878;-68
2023/09/26 12:22:57;;;;;;;3.70;2.90;;;24.60;99.90;;;;;;4996801;28;20205;-68
2023/09/26 12:25:24;;;;;;;3.67;2.83;;;24.70;99.90;;;;;;4979227;28;20231;-69
2023/09/26 12:27:52;;;;;;;4.17;3.77;;;24.70;99.90;;;;;;4996348;28;20988;-68
2023/09/26 12:30:19;;;;;;;3.73;3.40;;;24.80;99.90;;;;;;4995920;28;20560;-68
2023/09/26 12:32:45;;;;;;;3.67;3.37;;;25.00;99.90;;;;;;4979438;28;20447;-68
2023/09/26 12:35:11;;;;;;;3.47;3.10;;;25.30;99.90;;;;;;4996967;28;20404;-68
2023/09/26 12:37:37;;;;;;;6.23;4.17;;;25.70;99.90;;;;;;4996631;28;20404;-66
2023/09/26 12:40:12;;;;;;;5.23;3.50;;;26.40;99.90;;;;;;4995493;28;20201;-68
2023/09/26 12:42:40;;;;;;;2.93;2.73;;;27.00;99.90;;;;;;4996012;28;20467;-75
2023/09/26 12:45:06;;;;;;;2.97;2.70;;;27.70;99.90;;;;;;4979429;28;20420;-68
2023/09/26 12:47:33;;;;;;;2.80;2.60;;;28.10;99.90;;;;;;4978887;28;20434;-70
2023/09/26 12:50:05;;;;;;;2.87;2.67;;;28.20;99.90;;;;;;4994713;28;20424;-68
2023/09/26 12:52:33;;;;;;;3.00;2.77;;;28.00;99.90;;;;;;4996185;28;20835;-68
2023/09/26 12:55:00;;;;;;;4.07;3.03;;;27.90;99.90;;;;;;4962473;28;20967;-69
2023/09/26 12:57:27;;;;;;;2.60;2.40;;;27.80;99.90;;;;;;4963519;28;20415;-68
2023/09/26 12:59:53;;;;;;;3.10;2.80;;;27.70;99.90;;;;;;4962027;28;20416;-68
2023/09/26 13:02:19;;;;;;;5.60;2.90;;;27.50;99.90;;;;;;4978220;28;20637;-71